This is the latest recevied weather packets stored in our database for station/object OE-11372. If no packets are shown the sender has not sent any weather packets the latest 10 day(s).
| Time | Temp. | Humidity | Pressure | Rain* | Wind** | Luminosity | Snow |
|---|---|---|---|---|---|---|---|
| 1787644503 | 15.56° C | 87% | 848.5 hPa | 0.76 mm | - | 99 W/m² | - |
| 1787643676 | 15.56° C | 87% | 848.6 hPa | 0.76 mm | - | 82 W/m² | - |
| 1787643303 | 15.56° C | 87% | 848.5 hPa | 0.51 mm | - | 58 W/m² | - |
| 1787642703 | 15.56° C | 86% | 848.4 hPa | 0.76 mm | - | 66 W/m² | - |
| 1787641876 | 15.56° C | 85% | 848.5 hPa | 0.51 mm | - | 66 W/m² | - |
| 1787641502 | 16.11° C | 81% | 848.5 hPa | 0.51 mm | - | 49 W/m² | - |
| 1787640902 | 16.67° C | 77% | 848.5 hPa | 0.25 mm | - | 25 W/m² | - |
| 1787640076 | 17.22° C | 74% | 848.6 hPa | 0.25 mm | - | 16 W/m² | - |
| 1787639702 | 17.78° C | 68% | 848.5 hPa | 0 mm | - | 16 W/m² | - |
| 1787639103 | 18.33° C | 64% | 848.5 hPa | 0 mm | - | 16 W/m² | - |
| 1787638275 | 18.89° C | 58% | 848.5 hPa | 0 mm | - | 8 W/m² | - |
| 1787637903 | 19.44° C | 56% | 848.6 hPa | 0 mm | - | 8 W/m² | - |
| 1787637303 | 19.44° C | 52% | 848.6 hPa | 0 mm | - | 8 W/m² | - |
| 1787636475 | 19.44° C | 52% | 848.4 hPa | 0 mm | - | 16 W/m² | - |
| 1787636102 | 19.44° C | 53% | 848.4 hPa | 0 mm | - | 16 W/m² | - |
| 1787635502 | 18.89° C | 54% | 848.3 hPa | 0 mm | - | 8 W/m² | - |
| 1787634676 | 19.44° C | 54% | 848.3 hPa | 0 mm | - | 8 W/m² | - |
| 1787634303 | 19.44° C | 53% | 848.4 hPa | 0 mm | - | 0 W/m² | - |
| 1787633703 | 19.44° C | 52% | 848.4 hPa | 0 mm | - | 0 W/m² | - |
| 1787632876 | 19.44° C | 50% | 848.5 hPa | 0 mm | - | 0 W/m² | - |
| 1787632503 | 19.44° C | 50% | 848.5 hPa | 0 mm | - | 0 W/m² | - |
| 1787631903 | 20° C | 48% | 848.4 hPa | 0 mm | - | 0 W/m² | - |
| 1787631076 | 19.44° C | 50% | 848.5 hPa | 0 mm | - | 0 W/m² | - |
| 1787630703 | 20° C | 48% | 848.4 hPa | 0 mm | - | 0 W/m² | - |
| 1787630103 | 19.44° C | 49% | 848.5 hPa | 0 mm | - | 0 W/m² | - |
* Rain latest hour (hover to see other rain measurements)
** Current wind speed in m/s (hover to see current wind gust speed)